createdAt,value
2022-11-23T00:00:06.797Z,15.93
2022-11-23T00:02:35.811Z,16.17
2022-11-23T00:05:05.297Z,15.30
2022-11-23T00:07:34.251Z,15.30
2022-11-23T00:10:03.169Z,15.27
2022-11-23T00:12:32.222Z,15.50
2022-11-23T00:15:02.577Z,15.77
2022-11-23T00:17:31.779Z,15.90
2022-11-23T00:20:00.846Z,15.73
2022-11-23T00:22:29.910Z,15.60
2022-11-23T00:24:59.572Z,15.33
2022-11-23T00:27:29.070Z,15.47
2022-11-23T00:29:58.222Z,16.27
2022-11-23T00:32:30.378Z,15.17
2022-11-23T00:35:00.809Z,15.27
2022-11-23T00:37:29.928Z,15.90
2022-11-23T00:39:59.178Z,15.30
2022-11-23T00:42:28.089Z,15.30
2022-11-23T00:44:57.058Z,15.20
2022-11-23T00:47:26.089Z,15.20
2022-11-23T00:49:56.578Z,15.53
2022-11-23T00:52:25.483Z,15.10
2022-11-23T00:54:54.543Z,16.00
2022-11-23T00:57:23.903Z,15.33
2022-11-23T00:59:53.066Z,14.90
2022-11-23T01:02:22.083Z,15.43
2022-11-23T01:04:51.117Z,15.73
2022-11-23T01:07:21.620Z,15.43
2022-11-23T01:09:50.726Z,15.53
2022-11-23T01:12:19.778Z,15.03
2022-11-23T01:14:49.625Z,15.47
2022-11-23T01:17:18.397Z,15.23
2022-11-23T01:19:47.437Z,15.60
2022-11-23T01:22:16.436Z,15.70
2022-11-23T01:24:47.001Z,16.20
2022-11-23T01:27:16.067Z,16.40
2022-11-23T01:29:44.962Z,16.20
2022-11-23T01:32:13.902Z,15.73
2022-11-23T01:34:42.880Z,15.60
2022-11-23T01:37:12.019Z,15.03
2022-11-23T01:39:40.850Z,15.50
2022-11-23T01:42:16.504Z,15.67
2022-11-23T01:44:47.154Z,15.60
2022-11-23T01:47:16.041Z,15.97
2022-11-23T01:49:49.978Z,16.07
2022-11-23T01:52:21.599Z,15.63
2022-11-23T01:54:52.639Z,15.63
2022-11-23T01:57:27.249Z,15.30
2022-11-23T01:59:57.486Z,15.53
2022-11-23T02:02:28.474Z,15.87
2022-11-23T02:05:00.156Z,16.47
2022-11-23T02:07:30.168Z,16.47
2022-11-23T02:09:59.871Z,17.00
2022-11-23T02:12:30.278Z,16.90
2022-11-23T02:14:59.566Z,15.97
2022-11-23T02:17:28.662Z,17.63
2022-11-23T02:20:04.803Z,16.73
2022-11-23T02:22:41.652Z,16.57
2022-11-23T02:25:20.648Z,16.50
2022-11-23T02:27:51.613Z,17.63
2022-11-23T02:30:21.223Z,17.23
2022-11-23T02:32:50.537Z,17.10
2022-11-23T02:35:19.893Z,16.93
2022-11-23T02:37:50.022Z,17.87
2022-11-23T02:40:28.939Z,17.37
2022-11-23T02:43:00.616Z,17.80
2022-11-23T02:45:36.736Z,16.97
2022-11-23T02:48:06.449Z,17.00
2022-11-23T02:50:35.422Z,17.97
2022-11-23T02:53:04.471Z,17.37
2022-11-23T02:55:34.159Z,17.07
2022-11-23T02:58:05.812Z,16.70
2022-11-23T03:00:35.022Z,16.63
2022-11-23T03:03:04.768Z,17.10
2022-11-23T03:05:35.649Z,18.00
2022-11-23T03:08:07.903Z,17.57
2022-11-23T03:10:37.048Z,18.07
2022-11-23T03:13:07.565Z,17.90
2022-11-23T03:15:38.194Z,18.00
2022-11-23T03:18:08.031Z,17.63
2022-11-23T03:20:38.196Z,18.37
2022-11-23T03:23:07.794Z,18.67
2022-11-23T03:25:36.650Z,18.23
2022-11-23T03:28:08.681Z,18.87
2022-11-23T03:30:37.914Z,19.50
2022-11-23T03:33:08.786Z,18.50
2022-11-23T03:35:38.850Z,17.87
2022-11-23T03:38:37.232Z,17.60
2022-11-23T03:41:12.839Z,17.70
2022-11-23T03:43:52.561Z,17.17
2022-11-23T03:46:21.584Z,16.43
2022-11-23T03:48:50.506Z,16.73
2022-11-23T03:51:19.427Z,16.73
2022-11-23T03:53:48.493Z,16.17
2022-11-23T03:56:17.551Z,17.10
2022-11-23T03:58:48.602Z,17.07
2022-11-23T04:01:19.026Z,16.77
2022-11-23T04:03:51.599Z,16.70
2022-11-23T04:06:25.839Z,16.83
2022-11-23T04:09:02.583Z,16.00
2022-11-23T04:12:01.060Z,16.17
2022-11-23T04:14:30.034Z,16.83
2022-11-23T04:17:02.210Z,16.17
2022-11-23T04:19:32.699Z,15.57
2022-11-23T04:22:02.437Z,17.30
2022-11-23T04:24:36.876Z,16.73
2022-11-23T04:27:07.562Z,16.70
2022-11-23T04:29:36.644Z,15.50
2022-11-23T04:32:07.140Z,16.50
2022-11-23T04:34:36.030Z,14.90
2022-11-23T04:37:10.304Z,14.67
2022-11-23T04:39:42.985Z,14.57
2022-11-23T04:42:17.686Z,13.77
2022-11-23T04:44:52.802Z,14.00
2022-11-23T04:47:24.167Z,13.67
2022-11-23T04:49:54.038Z,14.03
2022-11-23T04:52:23.143Z,14.23
2022-11-23T04:54:52.809Z,14.50
2022-11-23T04:57:21.990Z,14.50
2022-11-23T04:59:53.673Z,14.03
2022-11-23T05:02:25.600Z,13.93
2022-11-23T05:05:06.082Z,14.20
2022-11-23T05:07:35.383Z,14.57
2022-11-23T05:10:06.792Z,13.53
2022-11-23T05:12:37.707Z,13.70
2022-11-23T05:15:07.582Z,13.83
2022-11-23T05:17:40.723Z,13.93
2022-11-23T05:20:16.200Z,12.80
2022-11-23T05:22:50.042Z,14.10
2022-11-23T05:25:23.114Z,14.70
2022-11-23T05:28:11.155Z,14.20
2022-11-23T05:30:49.029Z,14.53
2022-11-23T05:33:19.587Z,15.20
2022-11-23T05:35:49.002Z,15.07
2022-11-23T05:38:19.119Z,16.07
2022-11-23T05:40:48.288Z,15.93
2022-11-23T05:43:18.776Z,16.63
2022-11-23T05:45:47.971Z,15.87
2022-11-23T05:48:19.395Z,14.80
2022-11-23T05:50:55.254Z,15.73
2022-11-23T05:53:29.060Z,15.53
2022-11-23T05:56:06.450Z,15.70
2022-11-23T05:58:41.234Z,15.97
2022-11-23T06:01:11.543Z,15.83
2022-11-23T06:03:43.087Z,15.57
2022-11-23T06:06:12.581Z,15.07
2022-11-23T06:08:48.919Z,15.73
2022-11-23T06:11:18.773Z,15.80
2022-11-23T06:13:49.431Z,15.43
2022-11-23T06:16:19.425Z,15.60
2022-11-23T06:19:02.668Z,16.20
2022-11-23T06:21:31.988Z,16.00
2022-11-23T06:24:02.450Z,16.30
2022-11-23T06:26:33.441Z,15.63
2022-11-23T06:29:02.408Z,16.03
2022-11-23T06:31:31.451Z,15.80
2022-11-23T06:34:02.600Z,15.97
2022-11-23T06:36:34.271Z,15.63
2022-11-23T06:39:03.567Z,15.43
2022-11-23T06:41:32.814Z,15.67
2022-11-23T06:44:04.546Z,15.83
2022-11-23T06:46:40.606Z,14.97
2022-11-23T06:49:11.128Z,15.40
2022-11-23T06:51:41.808Z,14.57
2022-11-23T06:54:11.594Z,15.00
2022-11-23T06:56:40.804Z,15.70
2022-11-23T06:59:11.028Z,14.77
2022-11-23T07:01:40.356Z,15.13
2022-11-23T07:04:12.447Z,14.90
2022-11-23T07:06:48.586Z,17.30
2022-11-23T07:09:29.064Z,26.43
2022-11-23T07:12:17.242Z,16.93
2022-11-23T07:14:46.752Z,16.50
2022-11-23T07:17:17.533Z,18.70
2022-11-23T07:19:48.484Z,16.43
2022-11-23T07:22:17.533Z,14.80
2022-11-23T07:24:47.022Z,15.20
2022-11-23T07:27:18.393Z,14.73
2022-11-23T07:29:47.522Z,16.03
2022-11-23T07:32:16.619Z,15.90
2022-11-23T07:34:46.366Z,15.40
2022-11-23T07:37:17.939Z,15.80
2022-11-23T07:39:57.532Z,19.43
2022-11-23T07:42:35.523Z,20.27
2022-11-23T07:45:06.187Z,17.00
2022-11-23T07:47:35.147Z,18.33
2022-11-23T07:50:05.233Z,17.93
2022-11-23T07:52:37.809Z,18.13
2022-11-23T07:55:07.690Z,17.10
2022-11-23T07:57:36.745Z,17.37
2022-11-23T08:00:06.624Z,16.63
2022-11-23T08:02:53.023Z,17.20
2022-11-23T08:05:32.161Z,15.80
2022-11-23T08:08:03.338Z,15.53
2022-11-23T08:10:33.949Z,15.83
2022-11-23T08:13:05.839Z,15.37
2022-11-23T08:15:35.062Z,15.20
2022-11-23T08:18:05.978Z,14.27
2022-11-23T08:20:34.835Z,14.37
2022-11-23T08:23:04.972Z,14.67
2022-11-23T08:25:33.888Z,14.60
2022-11-23T08:28:05.057Z,14.80
2022-11-23T08:30:35.886Z,14.67
2022-11-23T08:33:06.033Z,14.90
2022-11-23T08:35:35.215Z,14.97
2022-11-23T08:38:06.069Z,14.90
2022-11-23T08:40:35.845Z,15.83
2022-11-23T08:43:05.016Z,14.40
2022-11-23T08:45:34.486Z,15.77
2022-11-23T08:48:04.537Z,15.33
2022-11-23T08:50:34.473Z,15.57
2022-11-23T08:53:05.754Z,16.00
2022-11-23T08:55:34.975Z,17.73
2022-11-23T08:58:07.820Z,18.03
2022-11-23T09:00:39.535Z,21.90
2022-11-23T09:03:08.446Z,26.47
2022-11-23T09:05:39.626Z,17.30
2022-11-23T09:08:10.175Z,16.87
2022-11-23T09:10:39.742Z,16.03
2022-11-23T09:13:08.791Z,15.60
2022-11-23T09:15:37.819Z,16.27
2022-11-23T09:18:07.175Z,16.13
2022-11-23T09:20:36.513Z,14.87
2022-11-23T09:23:09.190Z,15.13
2022-11-23T09:25:47.923Z,15.47
2022-11-23T09:28:19.465Z,15.73
2022-11-23T09:30:48.492Z,15.53
2022-11-23T09:33:17.610Z,15.67
2022-11-23T09:35:46.774Z,15.93
2022-11-23T09:38:15.989Z,15.17
2022-11-23T09:40:46.392Z,15.17
2022-11-23T09:43:36.836Z,14.73
2022-11-23T09:46:14.709Z,15.27
2022-11-23T09:49:08.205Z,14.47
2022-11-23T09:51:39.498Z,14.80
2022-11-23T09:54:16.775Z,14.00
2022-11-23T09:56:49.522Z,14.20
2022-11-23T09:59:29.038Z,13.90
2022-11-23T10:01:58.626Z,14.57
2022-11-23T10:04:31.870Z,13.80
2022-11-23T10:07:11.958Z,13.63
2022-11-23T10:09:54.855Z,13.80
2022-11-23T10:12:39.847Z,13.10
2022-11-23T10:15:16.840Z,13.83
2022-11-23T10:18:02.608Z,13.67
2022-11-23T10:20:47.709Z,13.07
2022-11-23T10:23:25.921Z,12.77
2022-11-23T10:25:55.289Z,14.50
2022-11-23T10:28:25.773Z,13.93
2022-11-23T10:31:03.164Z,16.80
2022-11-23T10:33:38.826Z,15.30
2022-11-23T10:36:11.039Z,14.03
2022-11-23T10:38:40.117Z,13.97
2022-11-23T10:41:11.859Z,13.00
2022-11-23T10:43:46.347Z,12.93
2022-11-23T10:46:30.884Z,13.10
2022-11-23T10:49:18.434Z,13.27
2022-11-23T10:51:56.034Z,12.73
2022-11-23T10:54:31.859Z,12.87
2022-11-23T10:57:03.427Z,13.17
2022-11-23T10:59:36.919Z,12.57
2022-11-23T11:02:18.727Z,12.63
2022-11-23T11:04:53.218Z,13.63
2022-11-23T11:07:29.744Z,13.50
2022-11-23T11:10:00.763Z,13.33
2022-11-23T11:12:34.064Z,13.17
2022-11-23T11:15:16.358Z,14.03
2022-11-23T11:17:45.441Z,13.93
2022-11-23T11:20:31.373Z,14.70
2022-11-23T11:23:02.869Z,14.77
2022-11-23T11:25:35.150Z,15.03
2022-11-23T11:28:06.627Z,14.47
2022-11-23T11:30:47.370Z,14.87
2022-11-23T11:33:24.187Z,16.17
2022-11-23T11:35:56.492Z,14.90
2022-11-23T11:38:29.678Z,14.50
2022-11-23T11:41:01.958Z,15.23
2022-11-23T11:43:39.789Z,16.07
2022-11-23T11:46:30.931Z,14.83
2022-11-23T11:49:07.520Z,14.87
2022-11-23T11:51:40.956Z,14.73
2022-11-23T11:54:20.102Z,14.37
2022-11-23T11:56:52.796Z,14.20
2022-11-23T11:59:27.739Z,14.23
2022-11-23T12:02:14.278Z,14.53
2022-11-23T12:04:47.724Z,13.87
2022-11-23T12:07:23.458Z,14.23
2022-11-23T12:09:58.372Z,13.67
2022-11-23T12:12:29.927Z,14.03
2022-11-23T12:14:59.173Z,14.57
2022-11-23T12:17:44.838Z,14.00
2022-11-23T12:20:20.831Z,13.53
2022-11-23T12:23:05.154Z,12.37
2022-11-23T12:25:38.988Z,12.70
2022-11-23T12:28:29.048Z,13.47
2022-11-23T12:31:07.490Z,12.43
2022-11-23T12:33:55.956Z,12.40
2022-11-23T12:36:50.199Z,12.30
2022-11-23T12:39:33.493Z,11.80
2022-11-23T12:42:12.663Z,11.90
2022-11-23T12:44:56.837Z,12.07
2022-11-23T12:47:40.655Z,11.67
2022-11-23T12:50:21.004Z,11.30
2022-11-23T12:53:17.480Z,11.00
2022-11-23T12:55:55.052Z,11.40
2022-11-23T12:58:27.461Z,11.50
2022-11-23T13:01:01.209Z,11.07
2022-11-23T13:04:05.263Z,11.83
2022-11-23T13:07:26.749Z,11.60
2022-11-23T13:10:08.892Z,11.80
2022-11-23T13:12:56.813Z,12.17
2022-11-23T13:16:01.081Z,12.60
2022-11-23T13:18:44.297Z,11.80
2022-11-23T13:21:24.115Z,11.87
2022-11-23T13:23:54.611Z,11.77
2022-11-23T13:26:24.787Z,11.33
2022-11-23T13:28:56.745Z,12.67
2022-11-23T13:31:28.625Z,12.33
2022-11-23T13:33:59.163Z,12.10
2022-11-23T13:40:03.737Z,12.87
2022-11-23T13:42:35.807Z,12.33
2022-11-23T13:45:31.044Z,12.47
2022-11-23T13:48:48.864Z,12.40
2022-11-23T13:51:08.914Z,11.93
2022-11-23T13:53:41.111Z,11.33
2022-11-23T13:56:27.097Z,12.30
2022-11-23T13:58:57.307Z,10.97
2022-11-23T14:02:01.550Z,11.00
2022-11-23T14:04:32.250Z,10.87
2022-11-23T14:07:06.615Z,10.10
2022-11-23T14:09:40.347Z,11.07
2022-11-23T14:12:20.440Z,11.23
2022-11-23T14:14:57.115Z,10.67
2022-11-23T14:18:09.742Z,10.83
2022-11-23T14:21:13.542Z,10.57
2022-11-23T14:24:11.216Z,10.80
2022-11-23T14:26:52.675Z,11.70
2022-11-23T14:29:58.315Z,11.80
2022-11-23T14:32:40.520Z,11.63
2022-11-23T14:35:20.918Z,11.67
2022-11-23T14:38:04.857Z,11.60
2022-11-23T14:40:49.001Z,12.47
2022-11-23T14:43:20.598Z,11.70
2022-11-23T14:45:51.614Z,13.77
2022-11-23T14:48:27.754Z,14.57
2022-11-23T14:50:59.059Z,18.70
2022-11-23T14:53:31.213Z,18.20
2022-11-23T14:56:00.649Z,18.67
2022-11-23T14:58:33.021Z,21.07
2022-11-23T15:01:04.688Z,32.17
2022-11-23T15:03:49.874Z,16.37
2022-11-23T15:06:25.486Z,13.23
2022-11-23T15:09:02.174Z,12.13
2022-11-23T15:11:34.367Z,12.70
2022-11-23T15:14:03.441Z,12.23
2022-11-23T15:16:42.577Z,12.97
2022-11-23T15:19:27.263Z,13.17
2022-11-23T15:21:56.557Z,12.73
2022-11-23T15:24:27.390Z,12.70
2022-11-23T15:27:09.280Z,11.53
2022-11-23T15:29:41.251Z,11.83
2022-11-23T15:32:34.282Z,13.10
2022-11-23T15:35:07.822Z,12.23
2022-11-23T15:37:43.622Z,12.70
2022-11-23T15:40:17.703Z,13.83
2022-11-23T15:42:49.715Z,13.97
2022-11-23T15:45:36.104Z,13.10
2022-11-23T15:48:11.491Z,12.93
2022-11-23T15:50:48.770Z,12.77
2022-11-23T15:53:18.025Z,12.70
2022-11-23T15:55:47.807Z,13.37
2022-11-23T15:58:19.273Z,13.33
2022-11-23T16:00:51.408Z,13.33
2022-11-23T16:03:41.699Z,13.07
2022-11-23T16:06:17.596Z,12.93
2022-11-23T16:08:47.201Z,14.03
2022-11-23T16:11:30.790Z,14.10
2022-11-23T16:14:14.814Z,13.37
2022-11-23T16:16:46.359Z,14.63
2022-11-23T16:19:28.528Z,14.60
2022-11-23T16:22:02.829Z,14.17
2022-11-23T16:24:35.224Z,18.90
2022-11-23T16:27:14.043Z,15.43
2022-11-23T16:29:43.202Z,14.83
2022-11-23T16:32:24.209Z,14.73
2022-11-23T16:34:55.081Z,15.30
2022-11-23T16:37:26.258Z,14.27
2022-11-23T16:39:55.373Z,13.93
2022-11-23T16:42:25.386Z,14.37
2022-11-23T16:44:54.471Z,14.57
2022-11-23T16:47:25.721Z,14.60
2022-11-23T16:49:56.634Z,13.87
2022-11-23T16:52:25.655Z,15.07
2022-11-23T16:54:54.558Z,13.73
2022-11-23T16:57:31.308Z,14.10
2022-11-23T17:00:03.364Z,14.10
2022-11-23T17:02:32.307Z,14.00
2022-11-23T17:05:02.804Z,14.27
2022-11-23T17:07:31.940Z,13.90
2022-11-23T17:10:00.814Z,14.33
2022-11-23T17:12:29.676Z,14.43
2022-11-23T17:15:00.207Z,14.07
2022-11-23T17:17:30.129Z,14.10
2022-11-23T17:20:03.946Z,14.43
2022-11-23T17:22:34.751Z,15.20
2022-11-23T17:25:03.758Z,15.67
2022-11-23T17:27:36.022Z,14.93
2022-11-23T17:30:12.456Z,14.40
2022-11-23T17:32:41.288Z,15.60
2022-11-23T17:35:11.517Z,15.40
2022-11-23T17:37:42.083Z,14.47
2022-11-23T17:40:15.819Z,15.27
2022-11-23T17:42:45.159Z,15.03
2022-11-23T17:45:14.642Z,14.60
2022-11-23T17:47:45.707Z,15.97
2022-11-23T17:50:18.410Z,14.97
2022-11-23T17:52:49.109Z,14.60
2022-11-23T17:55:18.261Z,14.43
2022-11-23T17:57:47.239Z,15.10
2022-11-23T18:00:20.154Z,15.90
2022-11-23T18:02:49.254Z,15.73
2022-11-23T18:05:21.784Z,15.50
2022-11-23T18:07:52.576Z,15.47
2022-11-23T18:10:21.790Z,16.17
2022-11-23T18:12:50.861Z,15.37
2022-11-23T18:15:19.816Z,15.80
2022-11-23T18:17:48.706Z,15.80
2022-11-23T18:20:18.867Z,15.33
2022-11-23T18:22:48.057Z,16.23
2022-11-23T18:25:18.930Z,15.33
2022-11-23T18:27:48.020Z,16.03
2022-11-23T18:30:19.268Z,16.90
2022-11-23T18:32:48.230Z,17.53
2022-11-23T18:35:17.211Z,16.80
2022-11-23T18:37:46.320Z,17.20
2022-11-23T18:40:15.530Z,18.17
2022-11-23T18:42:45.941Z,18.47
2022-11-23T18:45:15.538Z,17.80
2022-11-23T18:47:44.527Z,18.63
2022-11-23T18:50:13.979Z,17.40
2022-11-23T18:52:43.090Z,18.17
2022-11-23T18:55:12.432Z,16.80
2022-11-23T18:57:41.805Z,17.17
2022-11-23T19:00:15.646Z,17.47
2022-11-23T19:02:44.693Z,16.40
2022-11-23T19:05:13.674Z,16.33
2022-11-23T19:07:43.757Z,17.13
2022-11-23T19:10:12.931Z,16.40
2022-11-23T19:12:43.845Z,17.07
2022-11-23T19:15:16.516Z,16.60
2022-11-23T19:17:45.671Z,17.53
2022-11-23T19:20:15.036Z,16.90
2022-11-23T19:22:44.015Z,17.57
2022-11-23T19:25:12.992Z,17.80
2022-11-23T19:27:42.146Z,16.70
2022-11-23T19:30:14.027Z,16.80
2022-11-23T19:32:44.381Z,18.03
2022-11-23T19:35:13.626Z,17.57
2022-11-23T19:37:42.608Z,17.73
2022-11-23T19:40:13.267Z,17.00
2022-11-23T19:42:43.708Z,17.53
2022-11-23T19:45:12.935Z,17.87
2022-11-23T19:47:42.159Z,18.83
2022-11-23T19:50:12.863Z,17.63
2022-11-23T19:53:10.813Z,17.60
2022-11-23T19:55:32.199Z,18.33
2022-11-23T19:58:03.234Z,17.90
2022-11-23T20:00:32.233Z,17.80
2022-11-23T20:03:01.353Z,17.67
2022-11-23T20:05:31.909Z,18.33
2022-11-23T20:08:01.956Z,18.07
2022-11-23T20:10:31.061Z,18.03
2022-11-23T20:13:00.204Z,19.07
2022-11-23T20:15:29.292Z,18.43
2022-11-23T20:17:58.322Z,18.27
2022-11-23T20:20:27.917Z,18.37
2022-11-23T20:22:58.387Z,17.47
2022-11-23T20:25:27.437Z,17.97
2022-11-23T20:27:56.452Z,17.73
2022-11-23T20:30:25.422Z,18.63
2022-11-23T20:32:54.901Z,18.30
2022-11-23T20:35:23.968Z,18.10
2022-11-23T20:37:52.965Z,18.53
2022-11-23T20:40:23.427Z,18.63
2022-11-23T20:42:52.664Z,17.97
2022-11-23T20:45:21.682Z,18.90
2022-11-23T20:47:54.140Z,17.87
2022-11-23T20:50:25.310Z,18.00
2022-11-23T20:52:54.652Z,18.87
2022-11-23T20:55:24.989Z,17.77
2022-11-23T20:57:54.902Z,18.37
2022-11-23T21:00:24.775Z,18.60
2022-11-23T21:02:55.792Z,18.43
2022-11-23T21:05:24.989Z,19.47
2022-11-23T21:07:54.096Z,18.40
2022-11-23T21:10:42.101Z,19.70
2022-11-23T21:13:48.578Z,18.97
2022-11-23T21:16:18.151Z,18.27
2022-11-23T21:18:47.566Z,18.50
2022-11-23T21:21:17.024Z,19.50
2022-11-23T21:23:50.956Z,18.83
2022-11-23T21:26:22.847Z,19.43
2022-11-23T21:28:52.062Z,20.33
2022-11-23T21:31:21.149Z,19.40
2022-11-23T21:33:54.007Z,19.43
2022-11-23T21:36:24.357Z,20.07
2022-11-23T21:38:53.457Z,19.13
2022-11-23T21:41:24.025Z,19.60
2022-11-23T21:43:55.517Z,19.20
2022-11-23T21:46:24.980Z,18.97
2022-11-23T21:48:55.202Z,18.67
2022-11-23T21:51:26.856Z,18.53
2022-11-23T21:53:56.536Z,18.87
2022-11-23T21:56:28.031Z,18.73
2022-11-23T21:58:57.843Z,19.27
2022-11-23T22:01:29.809Z,19.67
2022-11-23T22:04:02.213Z,18.53
2022-11-23T22:06:31.747Z,19.87
2022-11-23T22:09:00.855Z,19.60
2022-11-23T22:11:32.622Z,18.60
2022-11-23T22:14:07.834Z,19.67
2022-11-23T22:16:38.755Z,17.47
2022-11-23T22:19:08.545Z,18.90
2022-11-23T22:21:39.395Z,19.80
2022-11-23T22:24:11.647Z,18.43
2022-11-23T22:26:42.565Z,18.57
2022-11-23T22:29:12.038Z,18.37
2022-11-23T22:31:41.584Z,18.33
2022-11-23T22:34:13.301Z,19.40
2022-11-23T22:36:42.865Z,18.13
2022-11-23T22:39:12.147Z,19.17
2022-11-23T22:41:42.758Z,18.17
2022-11-23T22:44:11.705Z,18.60
2022-11-23T22:46:41.222Z,18.77
2022-11-23T22:49:10.853Z,19.13
2022-11-23T22:51:39.642Z,18.43
2022-11-23T22:54:09.636Z,18.13
2022-11-23T22:56:39.027Z,19.13
2022-11-23T22:59:09.824Z,19.20
2022-11-23T23:01:38.618Z,18.97
2022-11-23T23:04:07.769Z,18.57
2022-11-23T23:06:36.773Z,18.20
2022-11-23T23:09:09.179Z,17.83
2022-11-23T23:11:38.029Z,18.23
2022-11-23T23:14:07.345Z,18.00
2022-11-23T23:16:37.702Z,18.00
2022-11-23T23:19:07.140Z,18.47
2022-11-23T23:21:36.030Z,17.93
2022-11-23T23:24:05.735Z,17.80
2022-11-23T23:26:34.751Z,17.43
2022-11-23T23:29:03.679Z,17.43
2022-11-23T23:31:32.798Z,16.53
2022-11-23T23:34:03.371Z,18.27
2022-11-23T23:36:32.242Z,16.60
2022-11-23T23:39:04.531Z,16.93
2022-11-23T23:41:33.437Z,17.20
2022-11-23T23:44:02.428Z,17.50
2022-11-23T23:46:31.359Z,17.40
2022-11-23T23:49:00.666Z,16.73
2022-11-23T23:51:30.858Z,17.77
2022-11-23T23:53:59.698Z,15.83
2022-11-23T23:56:29.964Z,16.53
2022-11-23T23:59:00.142Z,17.07
